sensor_id;sensor_type;location;lat;lon;timestamp;P1;durP1;ratioP1;P2;durP2;ratioP2
22967;SDS011;11650;48.106;-1.696;2023-11-19T00:00:06;12.73;;;2.80;;
22967;SDS011;11650;48.106;-1.696;2023-11-19T00:02:39;18.63;;;3.57;;
22967;SDS011;11650;48.106;-1.696;2023-11-19T00:05:05;18.13;;;3.00;;
22967;SDS011;11650;48.106;-1.696;2023-11-19T00:07:34;18.40;;;3.27;;
22967;SDS011;11650;48.106;-1.696;2023-11-19T00:10:01;15.13;;;2.60;;
22967;SDS011;11650;48.106;-1.696;2023-11-19T00:12:31;18.23;;;3.07;;
22967;SDS011;11650;48.106;-1.696;2023-11-19T00:14:57;13.33;;;2.63;;
22967;SDS011;11650;48.106;-1.696;2023-11-19T00:17:22;18.37;;;3.00;;
22967;SDS011;11650;48.106;-1.696;2023-11-19T00:19:48;20.77;;;3.60;;
22967;SDS011;11650;48.106;-1.696;2023-11-19T00:22:16;16.30;;;3.07;;
22967;SDS011;11650;48.106;-1.696;2023-11-19T00:24:42;14.90;;;3.10;;
22967;SDS011;11650;48.106;-1.696;2023-11-19T00:27:07;19.27;;;3.40;;
22967;SDS011;11650;48.106;-1.696;2023-11-19T00:29:33;21.43;;;3.40;;
22967;SDS011;11650;48.106;-1.696;2023-11-19T00:31:59;18.33;;;3.17;;
22967;SDS011;11650;48.106;-1.696;2023-11-19T00:34:24;18.33;;;3.20;;
22967;SDS011;11650;48.106;-1.696;2023-11-19T00:36:50;21.47;;;3.23;;
22967;SDS011;11650;48.106;-1.696;2023-11-19T00:39:16;18.57;;;3.63;;
22967;SDS011;11650;48.106;-1.696;2023-11-19T00:41:42;17.53;;;2.73;;
22967;SDS011;11650;48.106;-1.696;2023-11-19T00:44:08;25.03;;;4.37;;
22967;SDS011;11650;48.106;-1.696;2023-11-19T00:46:34;18.30;;;3.57;;
22967;SDS011;11650;48.106;-1.696;2023-11-19T00:48:59;19.27;;;3.83;;
22967;SDS011;11650;48.106;-1.696;2023-11-19T00:51:26;21.27;;;3.93;;
22967;SDS011;11650;48.106;-1.696;2023-11-19T00:53:51;21.47;;;4.03;;
22967;SDS011;11650;48.106;-1.696;2023-11-19T00:56:18;19.50;;;3.23;;
22967;SDS011;11650;48.106;-1.696;2023-11-19T00:58:44;20.53;;;4.03;;
22967;SDS011;11650;48.106;-1.696;2023-11-19T01:01:11;20.93;;;3.30;;
22967;SDS011;11650;48.106;-1.696;2023-11-19T01:03:37;24.27;;;4.03;;
22967;SDS011;11650;48.106;-1.696;2023-11-19T01:06:03;21.37;;;3.50;;
22967;SDS011;11650;48.106;-1.696;2023-11-19T01:08:29;16.80;;;3.87;;
22967;SDS011;11650;48.106;-1.696;2023-11-19T01:10:57;20.03;;;3.60;;
22967;SDS011;11650;48.106;-1.696;2023-11-19T01:13:22;24.90;;;4.10;;
22967;SDS011;11650;48.106;-1.696;2023-11-19T01:15:48;21.63;;;3.67;;
22967;SDS011;11650;48.106;-1.696;2023-11-19T01:18:14;18.73;;;3.53;;
22967;SDS011;11650;48.106;-1.696;2023-11-19T01:20:40;19.33;;;4.30;;
22967;SDS011;11650;48.106;-1.696;2023-11-19T01:23:05;29.70;;;4.37;;
22967;SDS011;11650;48.106;-1.696;2023-11-19T01:25:31;20.90;;;4.10;;
22967;SDS011;11650;48.106;-1.696;2023-11-19T01:27:57;30.90;;;4.53;;
22967;SDS011;11650;48.106;-1.696;2023-11-19T01:30:23;22.57;;;4.07;;
22967;SDS011;11650;48.106;-1.696;2023-11-19T01:32:49;21.80;;;4.07;;
22967;SDS011;11650;48.106;-1.696;2023-11-19T01:35:15;22.90;;;4.30;;
22967;SDS011;11650;48.106;-1.696;2023-11-19T01:37:41;25.93;;;4.53;;
22967;SDS011;11650;48.106;-1.696;2023-11-19T01:40:06;28.03;;;4.33;;
22967;SDS011;11650;48.106;-1.696;2023-11-19T01:42:38;33.77;;;5.10;;
22967;SDS011;11650;48.106;-1.696;2023-11-19T01:45:04;29.07;;;4.43;;
22967;SDS011;11650;48.106;-1.696;2023-11-19T01:47:34;28.43;;;4.57;;
22967;SDS011;11650;48.106;-1.696;2023-11-19T01:50:01;29.33;;;4.40;;
22967;SDS011;11650;48.106;-1.696;2023-11-19T01:52:31;23.37;;;4.23;;
22967;SDS011;11650;48.106;-1.696;2023-11-19T01:54:59;28.23;;;5.17;;
22967;SDS011;11650;48.106;-1.696;2023-11-19T01:57:26;30.03;;;4.80;;
22967;SDS011;11650;48.106;-1.696;2023-11-19T01:59:51;28.83;;;4.57;;
22967;SDS011;11650;48.106;-1.696;2023-11-19T02:02:18;35.63;;;5.27;;
22967;SDS011;11650;48.106;-1.696;2023-11-19T02:04:49;38.77;;;5.40;;
22967;SDS011;11650;48.106;-1.696;2023-11-19T02:07:16;31.57;;;5.23;;
22967;SDS011;11650;48.106;-1.696;2023-11-19T02:09:45;38.77;;;5.60;;
22967;SDS011;11650;48.106;-1.696;2023-11-19T02:12:11;28.67;;;5.07;;
22967;SDS011;11650;48.106;-1.696;2023-11-19T02:14:37;30.43;;;5.27;;
22967;SDS011;11650;48.106;-1.696;2023-11-19T02:17:02;32.17;;;5.97;;
22967;SDS011;11650;48.106;-1.696;2023-11-19T02:19:28;34.37;;;5.27;;
22967;SDS011;11650;48.106;-1.696;2023-11-19T02:21:54;39.67;;;5.17;;
22967;SDS011;11650;48.106;-1.696;2023-11-19T02:24:21;41.37;;;5.63;;
22967;SDS011;11650;48.106;-1.696;2023-11-19T02:29:52;43.97;;;5.73;;
22967;SDS011;11650;48.106;-1.696;2023-11-19T02:32:18;31.67;;;5.50;;
22967;SDS011;11650;48.106;-1.696;2023-11-19T02:34:45;36.20;;;5.50;;
22967;SDS011;11650;48.106;-1.696;2023-11-19T02:37:10;34.97;;;6.23;;
22967;SDS011;11650;48.106;-1.696;2023-11-19T02:39:37;42.97;;;6.13;;
22967;SDS011;11650;48.106;-1.696;2023-11-19T02:42:02;34.63;;;5.67;;
22967;SDS011;11650;48.106;-1.696;2023-11-19T02:44:28;36.40;;;5.53;;
22967;SDS011;11650;48.106;-1.696;2023-11-19T02:46:55;34.43;;;5.47;;
22967;SDS011;11650;48.106;-1.696;2023-11-19T02:49:24;38.90;;;6.23;;
22967;SDS011;11650;48.106;-1.696;2023-11-19T02:51:50;40.20;;;6.17;;
22967;SDS011;11650;48.106;-1.696;2023-11-19T02:54:15;38.27;;;5.63;;
22967;SDS011;11650;48.106;-1.696;2023-11-19T02:56:44;34.70;;;5.83;;
22967;SDS011;11650;48.106;-1.696;2023-11-19T02:59:13;43.53;;;6.77;;
22967;SDS011;11650;48.106;-1.696;2023-11-19T03:01:52;44.13;;;6.77;;
22967;SDS011;11650;48.106;-1.696;2023-11-19T03:04:18;36.87;;;6.00;;
22967;SDS011;11650;48.106;-1.696;2023-11-19T03:06:45;47.63;;;6.73;;
22967;SDS011;11650;48.106;-1.696;2023-11-19T03:09:11;40.80;;;6.83;;
22967;SDS011;11650;48.106;-1.696;2023-11-19T03:11:37;50.17;;;7.30;;
22967;SDS011;11650;48.106;-1.696;2023-11-19T03:14:03;42.40;;;7.07;;
22967;SDS011;11650;48.106;-1.696;2023-11-19T03:16:29;51.43;;;7.00;;
22967;SDS011;11650;48.106;-1.696;2023-11-19T03:18:54;45.57;;;6.23;;
22967;SDS011;11650;48.106;-1.696;2023-11-19T03:21:28;35.00;;;5.33;;
22967;SDS011;11650;48.106;-1.696;2023-11-19T03:23:56;43.40;;;7.07;;
22967;SDS011;11650;48.106;-1.696;2023-11-19T03:26:23;39.63;;;6.20;;
22967;SDS011;11650;48.106;-1.696;2023-11-19T03:28:48;49.53;;;6.77;;
22967;SDS011;11650;48.106;-1.696;2023-11-19T03:31:14;35.93;;;6.07;;
22967;SDS011;11650;48.106;-1.696;2023-11-19T03:33:39;48.43;;;6.80;;
22967;SDS011;11650;48.106;-1.696;2023-11-19T03:36:05;48.97;;;7.20;;
22967;SDS011;11650;48.106;-1.696;2023-11-19T03:38:32;44.60;;;7.10;;
22967;SDS011;11650;48.106;-1.696;2023-11-19T03:40:58;53.03;;;6.83;;
22967;SDS011;11650;48.106;-1.696;2023-11-19T03:43:24;50.83;;;7.03;;
22967;SDS011;11650;48.106;-1.696;2023-11-19T03:45:49;41.67;;;6.50;;
22967;SDS011;11650;48.106;-1.696;2023-11-19T03:48:15;50.00;;;7.23;;
22967;SDS011;11650;48.106;-1.696;2023-11-19T03:50:41;47.13;;;7.40;;
22967;SDS011;11650;48.106;-1.696;2023-11-19T03:53:07;42.37;;;6.53;;
22967;SDS011;11650;48.106;-1.696;2023-11-19T03:55:33;43.57;;;6.97;;
22967;SDS011;11650;48.106;-1.696;2023-11-19T03:57:58;42.90;;;6.37;;
22967;SDS011;11650;48.106;-1.696;2023-11-19T04:00:24;43.00;;;6.93;;
22967;SDS011;11650;48.106;-1.696;2023-11-19T04:02:49;54.47;;;7.40;;
22967;SDS011;11650;48.106;-1.696;2023-11-19T04:05:15;49.37;;;7.53;;
22967;SDS011;11650;48.106;-1.696;2023-11-19T04:07:41;49.07;;;6.13;;
22967;SDS011;11650;48.106;-1.696;2023-11-19T04:10:06;51.47;;;6.97;;
22967;SDS011;11650;48.106;-1.696;2023-11-19T04:12:32;55.57;;;7.07;;
22967;SDS011;11650;48.106;-1.696;2023-11-19T04:14:58;49.60;;;7.17;;
22967;SDS011;11650;48.106;-1.696;2023-11-19T04:17:23;57.20;;;7.60;;
22967;SDS011;11650;48.106;-1.696;2023-11-19T04:19:49;49.10;;;7.23;;
22967;SDS011;11650;48.106;-1.696;2023-11-19T04:22:15;57.07;;;7.50;;
22967;SDS011;11650;48.106;-1.696;2023-11-19T04:24:41;61.73;;;7.33;;
22967;SDS011;11650;48.106;-1.696;2023-11-19T04:27:09;54.43;;;7.60;;
22967;SDS011;11650;48.106;-1.696;2023-11-19T04:29:35;50.53;;;8.30;;
22967;SDS011;11650;48.106;-1.696;2023-11-19T04:32:00;59.17;;;7.17;;
22967;SDS011;11650;48.106;-1.696;2023-11-19T04:34:26;46.30;;;8.03;;
22967;SDS011;11650;48.106;-1.696;2023-11-19T04:36:52;52.67;;;8.20;;
22967;SDS011;11650;48.106;-1.696;2023-11-19T04:39:17;54.97;;;7.50;;
22967;SDS011;11650;48.106;-1.696;2023-11-19T04:44:14;58.87;;;8.13;;
22967;SDS011;11650;48.106;-1.696;2023-11-19T04:46:41;60.20;;;7.80;;
22967;SDS011;11650;48.106;-1.696;2023-11-19T04:49:08;50.73;;;7.47;;
22967;SDS011;11650;48.106;-1.696;2023-11-19T04:51:39;49.77;;;7.17;;
22967;SDS011;11650;48.106;-1.696;2023-11-19T04:54:06;58.53;;;7.43;;
22967;SDS011;11650;48.106;-1.696;2023-11-19T04:56:33;50.97;;;8.43;;
22967;SDS011;11650;48.106;-1.696;2023-11-19T04:59:00;61.87;;;7.87;;
22967;SDS011;11650;48.106;-1.696;2023-11-19T05:01:25;53.37;;;6.47;;
22967;SDS011;11650;48.106;-1.696;2023-11-19T05:03:51;62.90;;;9.17;;
22967;SDS011;11650;48.106;-1.696;2023-11-19T05:06:16;55.17;;;7.23;;
22967;SDS011;11650;48.106;-1.696;2023-11-19T05:08:42;75.77;;;8.93;;
22967;SDS011;11650;48.106;-1.696;2023-11-19T05:11:08;51.50;;;7.30;;
22967;SDS011;11650;48.106;-1.696;2023-11-19T05:13:37;52.33;;;7.67;;
22967;SDS011;11650;48.106;-1.696;2023-11-19T05:16:03;60.53;;;8.47;;
22967;SDS011;11650;48.106;-1.696;2023-11-19T05:18:28;68.83;;;8.40;;
22967;SDS011;11650;48.106;-1.696;2023-11-19T05:20:54;52.73;;;7.30;;
22967;SDS011;11650;48.106;-1.696;2023-11-19T05:23:20;50.63;;;7.50;;
22967;SDS011;11650;48.106;-1.696;2023-11-19T05:25:46;56.83;;;9.00;;
22967;SDS011;11650;48.106;-1.696;2023-11-19T05:28:12;66.57;;;8.00;;
22967;SDS011;11650;48.106;-1.696;2023-11-19T05:30:39;53.97;;;7.50;;
22967;SDS011;11650;48.106;-1.696;2023-11-19T05:33:05;55.87;;;7.80;;
22967;SDS011;11650;48.106;-1.696;2023-11-19T05:35:31;46.20;;;7.17;;
22967;SDS011;11650;48.106;-1.696;2023-11-19T05:37:57;47.60;;;7.57;;
22967;SDS011;11650;48.106;-1.696;2023-11-19T05:40:23;59.13;;;8.33;;
22967;SDS011;11650;48.106;-1.696;2023-11-19T05:42:48;62.53;;;8.60;;
22967;SDS011;11650;48.106;-1.696;2023-11-19T05:45:14;51.20;;;7.93;;
22967;SDS011;11650;48.106;-1.696;2023-11-19T05:47:40;59.33;;;8.47;;
22967;SDS011;11650;48.106;-1.696;2023-11-19T05:50:06;66.73;;;8.97;;
22967;SDS011;11650;48.106;-1.696;2023-11-19T05:52:33;47.97;;;7.87;;
22967;SDS011;11650;48.106;-1.696;2023-11-19T05:55:00;64.03;;;7.70;;
22967;SDS011;11650;48.106;-1.696;2023-11-19T05:57:29;63.97;;;7.90;;
22967;SDS011;11650;48.106;-1.696;2023-11-19T05:59:54;64.50;;;8.10;;
22967;SDS011;11650;48.106;-1.696;2023-11-19T06:02:20;57.93;;;8.23;;
22967;SDS011;11650;48.106;-1.696;2023-11-19T06:04:46;58.00;;;8.23;;
22967;SDS011;11650;48.106;-1.696;2023-11-19T06:07:13;60.83;;;8.40;;
22967;SDS011;11650;48.106;-1.696;2023-11-19T06:09:40;63.80;;;8.47;;
22967;SDS011;11650;48.106;-1.696;2023-11-19T06:12:06;58.30;;;7.30;;
22967;SDS011;11650;48.106;-1.696;2023-11-19T06:14:32;51.03;;;8.17;;
22967;SDS011;11650;48.106;-1.696;2023-11-19T06:16:58;58.40;;;7.80;;
22967;SDS011;11650;48.106;-1.696;2023-11-19T06:19:23;56.23;;;8.80;;
22967;SDS011;11650;48.106;-1.696;2023-11-19T06:21:53;55.07;;;8.23;;
22967;SDS011;11650;48.106;-1.696;2023-11-19T06:24:18;49.90;;;7.07;;
22967;SDS011;11650;48.106;-1.696;2023-11-19T06:26:44;61.43;;;8.23;;
22967;SDS011;11650;48.106;-1.696;2023-11-19T06:29:10;50.30;;;7.27;;
22967;SDS011;11650;48.106;-1.696;2023-11-19T06:31:35;60.97;;;8.20;;
22967;SDS011;11650;48.106;-1.696;2023-11-19T06:34:01;60.97;;;8.10;;
22967;SDS011;11650;48.106;-1.696;2023-11-19T06:36:27;56.87;;;7.83;;
22967;SDS011;11650;48.106;-1.696;2023-11-19T06:38:53;50.73;;;7.67;;
22967;SDS011;11650;48.106;-1.696;2023-11-19T06:41:18;58.53;;;8.20;;
22967;SDS011;11650;48.106;-1.696;2023-11-19T06:43:44;56.27;;;7.30;;
22967;SDS011;11650;48.106;-1.696;2023-11-19T06:46:16;53.80;;;7.53;;
22967;SDS011;11650;48.106;-1.696;2023-11-19T06:48:42;55.33;;;7.63;;
22967;SDS011;11650;48.106;-1.696;2023-11-19T06:51:09;54.53;;;8.67;;
22967;SDS011;11650;48.106;-1.696;2023-11-19T06:53:35;56.03;;;7.17;;
22967;SDS011;11650;48.106;-1.696;2023-11-19T06:56:01;59.17;;;8.20;;
22967;SDS011;11650;48.106;-1.696;2023-11-19T06:58:31;50.97;;;7.13;;
22967;SDS011;11650;48.106;-1.696;2023-11-19T07:01:02;49.30;;;7.93;;
22967;SDS011;11650;48.106;-1.696;2023-11-19T07:03:31;63.93;;;8.37;;
22967;SDS011;11650;48.106;-1.696;2023-11-19T07:05:59;53.77;;;7.40;;
22967;SDS011;11650;48.106;-1.696;2023-11-19T07:08:25;64.30;;;8.73;;
22967;SDS011;11650;48.106;-1.696;2023-11-19T07:10:51;64.83;;;8.90;;
22967;SDS011;11650;48.106;-1.696;2023-11-19T07:13:17;62.20;;;7.90;;
22967;SDS011;11650;48.106;-1.696;2023-11-19T07:15:44;64.07;;;8.53;;
22967;SDS011;11650;48.106;-1.696;2023-11-19T07:18:09;62.73;;;7.83;;
22967;SDS011;11650;48.106;-1.696;2023-11-19T07:20:36;50.40;;;7.67;;
22967;SDS011;11650;48.106;-1.696;2023-11-19T07:23:03;60.33;;;7.53;;
22967;SDS011;11650;48.106;-1.696;2023-11-19T07:25:29;58.57;;;8.17;;
22967;SDS011;11650;48.106;-1.696;2023-11-19T07:27:54;62.47;;;8.70;;
22967;SDS011;11650;48.106;-1.696;2023-11-19T07:30:20;57.83;;;8.70;;
22967;SDS011;11650;48.106;-1.696;2023-11-19T07:32:46;56.03;;;7.87;;
22967;SDS011;11650;48.106;-1.696;2023-11-19T07:35:12;58.93;;;8.77;;
22967;SDS011;11650;48.106;-1.696;2023-11-19T07:37:39;63.43;;;9.00;;
22967;SDS011;11650;48.106;-1.696;2023-11-19T07:40:05;54.10;;;8.57;;
22967;SDS011;11650;48.106;-1.696;2023-11-19T07:42:31;57.20;;;8.17;;
22967;SDS011;11650;48.106;-1.696;2023-11-19T07:44:56;65.73;;;8.53;;
22967;SDS011;11650;48.106;-1.696;2023-11-19T07:47:22;59.67;;;9.00;;
22967;SDS011;11650;48.106;-1.696;2023-11-19T07:49:48;62.87;;;8.53;;
22967;SDS011;11650;48.106;-1.696;2023-11-19T07:52:15;62.53;;;9.27;;
22967;SDS011;11650;48.106;-1.696;2023-11-19T07:54:41;63.87;;;8.37;;
22967;SDS011;11650;48.106;-1.696;2023-11-19T07:57:06;67.07;;;9.63;;
22967;SDS011;11650;48.106;-1.696;2023-11-19T07:59:32;61.70;;;8.60;;
22967;SDS011;11650;48.106;-1.696;2023-11-19T08:01:57;74.97;;;8.93;;
22967;SDS011;11650;48.106;-1.696;2023-11-19T08:04:23;58.37;;;7.83;;
22967;SDS011;11650;48.106;-1.696;2023-11-19T08:06:49;54.50;;;7.77;;
22967;SDS011;11650;48.106;-1.696;2023-11-19T08:09:14;60.43;;;8.10;;
22967;SDS011;11650;48.106;-1.696;2023-11-19T08:11:40;59.10;;;7.47;;
22967;SDS011;11650;48.106;-1.696;2023-11-19T08:14:06;58.37;;;8.43;;
22967;SDS011;11650;48.106;-1.696;2023-11-19T08:16:33;63.67;;;8.30;;
22967;SDS011;11650;48.106;-1.696;2023-11-19T08:18:59;56.47;;;7.83;;
22967;SDS011;11650;48.106;-1.696;2023-11-19T08:21:24;59.20;;;9.17;;
22967;SDS011;11650;48.106;-1.696;2023-11-19T08:23:52;60.97;;;8.73;;
22967;SDS011;11650;48.106;-1.696;2023-11-19T08:26:17;67.43;;;8.27;;
22967;SDS011;11650;48.106;-1.696;2023-11-19T08:28:43;59.53;;;9.70;;
22967;SDS011;11650;48.106;-1.696;2023-11-19T08:31:08;54.23;;;7.47;;
22967;SDS011;11650;48.106;-1.696;2023-11-19T08:33:34;56.80;;;7.77;;
22967;SDS011;11650;48.106;-1.696;2023-11-19T08:36:00;59.10;;;8.40;;
22967;SDS011;11650;48.106;-1.696;2023-11-19T08:38:26;68.83;;;9.30;;
22967;SDS011;11650;48.106;-1.696;2023-11-19T08:40:51;53.73;;;7.33;;
22967;SDS011;11650;48.106;-1.696;2023-11-19T08:43:17;63.83;;;8.23;;
22967;SDS011;11650;48.106;-1.696;2023-11-19T08:45:43;53.10;;;7.80;;
22967;SDS011;11650;48.106;-1.696;2023-11-19T08:48:08;53.33;;;7.33;;
22967;SDS011;11650;48.106;-1.696;2023-11-19T08:50:34;60.47;;;7.63;;
22967;SDS011;11650;48.106;-1.696;2023-11-19T08:53:00;52.83;;;6.50;;
22967;SDS011;11650;48.106;-1.696;2023-11-19T08:55:25;53.60;;;7.90;;
22967;SDS011;11650;48.106;-1.696;2023-11-19T08:57:51;51.23;;;8.27;;
22967;SDS011;11650;48.106;-1.696;2023-11-19T09:00:17;54.43;;;7.97;;
22967;SDS011;11650;48.106;-1.696;2023-11-19T09:02:43;50.07;;;8.03;;
22967;SDS011;11650;48.106;-1.696;2023-11-19T09:05:08;52.53;;;7.70;;
22967;SDS011;11650;48.106;-1.696;2023-11-19T09:07:34;50.67;;;7.57;;
22967;SDS011;11650;48.106;-1.696;2023-11-19T09:10:00;52.70;;;6.97;;
22967;SDS011;11650;48.106;-1.696;2023-11-19T09:12:30;49.27;;;7.40;;
22967;SDS011;11650;48.106;-1.696;2023-11-19T09:14:56;59.87;;;7.67;;
22967;SDS011;11650;48.106;-1.696;2023-11-19T09:17:21;53.27;;;7.50;;
22967;SDS011;11650;48.106;-1.696;2023-11-19T09:19:47;53.47;;;7.07;;
22967;SDS011;11650;48.106;-1.696;2023-11-19T09:22:12;55.13;;;8.23;;
22967;SDS011;11650;48.106;-1.696;2023-11-19T09:24:38;50.33;;;8.10;;
22967;SDS011;11650;48.106;-1.696;2023-11-19T09:27:04;64.60;;;8.60;;
22967;SDS011;11650;48.106;-1.696;2023-11-19T09:29:33;45.73;;;6.10;;
22967;SDS011;11650;48.106;-1.696;2023-11-19T09:31:59;44.83;;;6.20;;
22967;SDS011;11650;48.106;-1.696;2023-11-19T09:34:25;46.17;;;6.00;;
22967;SDS011;11650;48.106;-1.696;2023-11-19T09:36:50;45.77;;;6.20;;
22967;SDS011;11650;48.106;-1.696;2023-11-19T09:39:16;42.10;;;6.57;;
22967;SDS011;11650;48.106;-1.696;2023-11-19T09:41:43;45.47;;;6.50;;
22967;SDS011;11650;48.106;-1.696;2023-11-19T09:44:10;46.43;;;7.53;;
22967;SDS011;11650;48.106;-1.696;2023-11-19T09:46:36;41.03;;;6.80;;
22967;SDS011;11650;48.106;-1.696;2023-11-19T09:49:05;45.03;;;7.27;;
22967;SDS011;11650;48.106;-1.696;2023-11-19T09:51:33;40.90;;;6.13;;
22967;SDS011;11650;48.106;-1.696;2023-11-19T09:54:00;51.20;;;6.83;;
22967;SDS011;11650;48.106;-1.696;2023-11-19T09:56:26;35.87;;;6.30;;
22967;SDS011;11650;48.106;-1.696;2023-11-19T09:58:54;45.07;;;6.17;;
22967;SDS011;11650;48.106;-1.696;2023-11-19T10:01:20;41.33;;;6.90;;
22967;SDS011;11650;48.106;-1.696;2023-11-19T10:03:46;43.80;;;7.20;;
22967;SDS011;11650;48.106;-1.696;2023-11-19T10:06:13;38.27;;;5.20;;
22967;SDS011;11650;48.106;-1.696;2023-11-19T10:08:39;43.60;;;6.90;;
22967;SDS011;11650;48.106;-1.696;2023-11-19T10:11:06;39.67;;;6.70;;
22967;SDS011;11650;48.106;-1.696;2023-11-19T10:13:34;38.73;;;7.57;;
22967;SDS011;11650;48.106;-1.696;2023-11-19T10:16:04;50.67;;;6.67;;
22967;SDS011;11650;48.106;-1.696;2023-11-19T10:18:33;53.83;;;7.63;;
22967;SDS011;11650;48.106;-1.696;2023-11-19T10:21:02;45.30;;;6.37;;
22967;SDS011;11650;48.106;-1.696;2023-11-19T10:23:31;47.67;;;7.20;;
22967;SDS011;11650;48.106;-1.696;2023-11-19T10:26:12;45.83;;;7.17;;
22967;SDS011;11650;48.106;-1.696;2023-11-19T10:28:41;40.27;;;7.33;;
22967;SDS011;11650;48.106;-1.696;2023-11-19T10:31:09;48.27;;;6.70;;
22967;SDS011;11650;48.106;-1.696;2023-11-19T10:33:35;26.70;;;4.93;;
22967;SDS011;11650;48.106;-1.696;2023-11-19T10:36:00;34.80;;;6.00;;
22967;SDS011;11650;48.106;-1.696;2023-11-19T10:38:26;41.00;;;6.17;;
22967;SDS011;11650;48.106;-1.696;2023-11-19T10:40:52;40.67;;;6.77;;
22967;SDS011;11650;48.106;-1.696;2023-11-19T10:43:20;37.93;;;5.63;;
22967;SDS011;11650;48.106;-1.696;2023-11-19T10:45:49;43.03;;;5.70;;
22967;SDS011;11650;48.106;-1.696;2023-11-19T10:48:15;47.10;;;6.43;;
22967;SDS011;11650;48.106;-1.696;2023-11-19T10:50:41;37.33;;;6.27;;
22967;SDS011;11650;48.106;-1.696;2023-11-19T10:53:09;27.70;;;5.70;;
22967;SDS011;11650;48.106;-1.696;2023-11-19T10:55:38;40.20;;;6.90;;
22967;SDS011;11650;48.106;-1.696;2023-11-19T10:58:07;38.83;;;5.87;;
22967;SDS011;11650;48.106;-1.696;2023-11-19T11:00:47;34.07;;;6.00;;
22967;SDS011;11650;48.106;-1.696;2023-11-19T11:03:18;40.83;;;6.77;;
22967;SDS011;11650;48.106;-1.696;2023-11-19T11:05:48;34.60;;;6.17;;
22967;SDS011;11650;48.106;-1.696;2023-11-19T11:08:15;28.73;;;4.83;;
22967;SDS011;11650;48.106;-1.696;2023-11-19T11:10:59;35.50;;;5.87;;
22967;SDS011;11650;48.106;-1.696;2023-11-19T11:13:27;36.33;;;6.27;;
22967;SDS011;11650;48.106;-1.696;2023-11-19T11:15:53;31.23;;;5.23;;
22967;SDS011;11650;48.106;-1.696;2023-11-19T11:18:23;27.73;;;5.17;;
22967;SDS011;11650;48.106;-1.696;2023-11-19T11:21:15;24.07;;;4.73;;
22967;SDS011;11650;48.106;-1.696;2023-11-19T11:32:35;33.47;;;6.03;;
22967;SDS011;11650;48.106;-1.696;2023-11-19T11:35:24;29.57;;;4.87;;
22967;SDS011;11650;48.106;-1.696;2023-11-19T11:37:58;35.53;;;6.03;;
22967;SDS011;11650;48.106;-1.696;2023-11-19T11:40:34;36.63;;;6.50;;
22967;SDS011;11650;48.106;-1.696;2023-11-19T11:43:01;35.43;;;4.80;;
22967;SDS011;11650;48.106;-1.696;2023-11-19T11:45:39;40.97;;;6.03;;
22967;SDS011;11650;48.106;-1.696;2023-11-19T11:48:08;38.43;;;5.23;;
22967;SDS011;11650;48.106;-1.696;2023-11-19T11:50:47;32.13;;;5.10;;
22967;SDS011;11650;48.106;-1.696;2023-11-19T11:53:18;38.13;;;5.80;;
22967;SDS011;11650;48.106;-1.696;2023-11-19T11:58:13;38.37;;;5.77;;
22967;SDS011;11650;48.106;-1.696;2023-11-19T12:00:42;32.03;;;5.53;;
22967;SDS011;11650;48.106;-1.696;2023-11-19T12:03:08;30.57;;;5.30;;
22967;SDS011;11650;48.106;-1.696;2023-11-19T12:05:43;38.93;;;5.90;;
22967;SDS011;11650;48.106;-1.696;2023-11-19T12:08:10;30.80;;;5.90;;
22967;SDS011;11650;48.106;-1.696;2023-11-19T12:10:50;22.33;;;4.40;;
22967;SDS011;11650;48.106;-1.696;2023-11-19T12:13:17;32.43;;;5.40;;
22967;SDS011;11650;48.106;-1.696;2023-11-19T12:18:31;25.70;;;5.17;;
22967;SDS011;11650;48.106;-1.696;2023-11-19T12:20:57;31.00;;;5.47;;
22967;SDS011;11650;48.106;-1.696;2023-11-19T12:23:30;29.10;;;4.63;;
22967;SDS011;11650;48.106;-1.696;2023-11-19T12:25:59;26.17;;;5.13;;
22967;SDS011;11650;48.106;-1.696;2023-11-19T12:28:25;30.37;;;5.73;;
22967;SDS011;11650;48.106;-1.696;2023-11-19T12:30:54;24.47;;;4.03;;
22967;SDS011;11650;48.106;-1.696;2023-11-19T12:33:35;22.60;;;4.80;;
22967;SDS011;11650;48.106;-1.696;2023-11-19T12:36:01;26.27;;;4.50;;
22967;SDS011;11650;48.106;-1.696;2023-11-19T12:38:30;21.43;;;4.33;;
22967;SDS011;11650;48.106;-1.696;2023-11-19T12:43:29;23.67;;;4.20;;
22967;SDS011;11650;48.106;-1.696;2023-11-19T12:45:55;22.53;;;4.40;;
22967;SDS011;11650;48.106;-1.696;2023-11-19T12:48:21;20.63;;;3.13;;
22967;SDS011;11650;48.106;-1.696;2023-11-19T12:50:53;27.57;;;5.00;;
22967;SDS011;11650;48.106;-1.696;2023-11-19T12:53:23;19.37;;;3.90;;
22967;SDS011;11650;48.106;-1.696;2023-11-19T12:55:50;27.57;;;4.77;;
22967;SDS011;11650;48.106;-1.696;2023-11-19T12:58:29;21.20;;;4.07;;
22967;SDS011;11650;48.106;-1.696;2023-11-19T13:01:08;22.43;;;4.20;;
22967;SDS011;11650;48.106;-1.696;2023-11-19T13:03:37;26.10;;;4.73;;
22967;SDS011;11650;48.106;-1.696;2023-11-19T13:06:06;32.77;;;6.57;;
22967;SDS011;11650;48.106;-1.696;2023-11-19T13:08:43;16.67;;;3.53;;
22967;SDS011;11650;48.106;-1.696;2023-11-19T13:11:10;26.70;;;4.47;;
22967;SDS011;11650;48.106;-1.696;2023-11-19T13:13:56;26.47;;;4.67;;
22967;SDS011;11650;48.106;-1.696;2023-11-19T13:16:23;26.63;;;4.73;;
22967;SDS011;11650;48.106;-1.696;2023-11-19T13:18:49;25.97;;;4.73;;
22967;SDS011;11650;48.106;-1.696;2023-11-19T13:21:15;21.43;;;4.10;;
22967;SDS011;11650;48.106;-1.696;2023-11-19T13:23:41;27.13;;;4.87;;
22967;SDS011;11650;48.106;-1.696;2023-11-19T13:26:07;27.27;;;4.33;;
22967;SDS011;11650;48.106;-1.696;2023-11-19T13:28:33;30.47;;;5.23;;
22967;SDS011;11650;48.106;-1.696;2023-11-19T13:30:59;27.43;;;4.20;;
22967;SDS011;11650;48.106;-1.696;2023-11-19T13:33:24;23.73;;;4.07;;
22967;SDS011;11650;48.106;-1.696;2023-11-19T13:35:50;28.93;;;4.93;;
22967;SDS011;11650;48.106;-1.696;2023-11-19T13:38:16;24.40;;;3.67;;
22967;SDS011;11650;48.106;-1.696;2023-11-19T13:40:42;22.80;;;4.40;;
22967;SDS011;11650;48.106;-1.696;2023-11-19T13:43:07;26.17;;;4.67;;
22967;SDS011;11650;48.106;-1.696;2023-11-19T13:45:33;28.57;;;5.23;;
22967;SDS011;11650;48.106;-1.696;2023-11-19T13:47:59;30.10;;;5.90;;
22967;SDS011;11650;48.106;-1.696;2023-11-19T13:50:25;25.33;;;4.60;;
22967;SDS011;11650;48.106;-1.696;2023-11-19T13:52:50;26.20;;;5.27;;
22967;SDS011;11650;48.106;-1.696;2023-11-19T13:55:16;20.13;;;3.33;;
22967;SDS011;11650;48.106;-1.696;2023-11-19T13:57:43;32.17;;;5.10;;
22967;SDS011;11650;48.106;-1.696;2023-11-19T14:00:09;28.40;;;5.43;;
22967;SDS011;11650;48.106;-1.696;2023-11-19T14:02:44;21.23;;;3.90;;
22967;SDS011;11650;48.106;-1.696;2023-11-19T14:05:12;27.97;;;5.30;;
22967;SDS011;11650;48.106;-1.696;2023-11-19T14:07:39;19.47;;;3.80;;
22967;SDS011;11650;48.106;-1.696;2023-11-19T14:10:05;30.33;;;5.20;;
22967;SDS011;11650;48.106;-1.696;2023-11-19T14:12:32;29.80;;;5.13;;
22967;SDS011;11650;48.106;-1.696;2023-11-19T14:14:58;22.60;;;4.60;;
22967;SDS011;11650;48.106;-1.696;2023-11-19T14:17:25;27.73;;;5.40;;
22967;SDS011;11650;48.106;-1.696;2023-11-19T14:19:51;21.10;;;4.17;;
22967;SDS011;11650;48.106;-1.696;2023-11-19T14:22:16;20.53;;;3.87;;
22967;SDS011;11650;48.106;-1.696;2023-11-19T14:24:42;23.50;;;4.40;;
22967;SDS011;11650;48.106;-1.696;2023-11-19T14:27:11;23.63;;;4.53;;
22967;SDS011;11650;48.106;-1.696;2023-11-19T14:29:37;26.97;;;4.30;;
22967;SDS011;11650;48.106;-1.696;2023-11-19T14:32:03;24.67;;;4.63;;
22967;SDS011;11650;48.106;-1.696;2023-11-19T14:34:30;19.27;;;3.67;;
22967;SDS011;11650;48.106;-1.696;2023-11-19T14:36:56;24.57;;;4.80;;
22967;SDS011;11650;48.106;-1.696;2023-11-19T14:39:22;26.57;;;4.97;;
22967;SDS011;11650;48.106;-1.696;2023-11-19T14:41:47;23.57;;;4.27;;